Time;durP1;ratioP1;P1;durP2;ratioP2;P2;SDS_P1;SDS_P2;PMS_P1;PMS_P2;Temp;Humidity;BMP_temperature;BMP_pressure;BME280_temperature;BME280_humidity;BME280_pressure;Samples;Min_cycle;Max_cycle;Signal;HPM_P1;HPM_P2
2021/05/23 00:01:09;;;;;;;10.93;6.38;;;;;;;12.52;100.00;97437.72;5080348;28;20027;-89
2021/05/23 00:03:35;;;;;;;9.80;6.30;;;;;;;12.47;100.00;97429.13;5096933;28;20028;-89
2021/05/23 00:06:02;;;;;;;17.92;6.53;;;;;;;12.46;100.00;97435.47;5061548;28;20020;-89
2021/05/23 00:08:27;;;;;;;10.68;6.22;;;;;;;12.40;100.00;97427.84;5097543;28;20115;-88
2021/05/23 00:10:57;;;;;;;16.77;6.88;;;;;;;12.47;100.00;97436.31;5080961;28;20127;-88
2021/05/23 00:13:26;;;;;;;9.43;6.47;;;;;;;12.41;100.00;97439.44;5098459;28;20026;-88
2021/05/23 00:16:04;;;;;;;11.73;7.30;;;;;;;12.37;100.00;97427.19;5063708;28;20028;-89
2021/05/23 00:18:31;;;;;;;14.25;6.47;;;;;;;12.42;100.00;97438.50;5063692;28;20573;-88
2021/05/23 00:20:57;;;;;;;13.98;6.38;;;;;;;12.40;100.00;97421.63;5062935;28;20024;-88
2021/05/23 00:23:23;;;;;;;14.07;6.22;;;;;;;12.43;100.00;97422.25;5062953;28;20036;-89
2021/05/23 00:25:51;;;;;;;12.35;6.05;;;;;;;12.42;100.00;97427.75;5062850;28;20086;-88
2021/05/23 00:28:16;;;;;;;15.50;5.75;;;;;;;12.37;100.00;97414.66;5063005;28;20027;-89
2021/05/23 00:30:42;;;;;;;6.82;5.20;;;;;;;12.40;100.00;97425.16;5063475;28;20020;-89
2021/05/23 00:33:09;;;;;;;10.48;5.65;;;;;;;12.49;100.00;97435.25;5064101;28;20023;-89
2021/05/23 00:35:35;;;;;;;10.57;5.45;;;;;;;12.48;100.00;97428.19;5063567;28;20023;-88
2021/05/23 00:38:01;;;;;;;11.27;6.35;;;;;;;12.52;100.00;97430.66;5080427;28;20494;-89
2021/05/23 00:40:26;;;;;;;10.45;5.55;;;;;;;12.52;100.00;97441.38;5096877;28;20169;-89
2021/05/23 00:42:52;;;;;;;12.05;6.15;;;;;;;12.52;100.00;97427.97;5071276;28;20056;-89
2021/05/23 00:45:18;;;;;;;9.13;6.10;;;;;;;12.52;100.00;97438.69;5084607;28;20089;-89
2021/05/23 00:47:45;;;;;;;8.85;5.80;;;;;;;12.55;100.00;97449.22;5081252;28;20024;-89
2021/05/23 00:50:16;;;;;;;10.27;5.60;;;;;;;12.52;100.00;97447.56;5065197;28;20058;-89
2021/05/23 00:52:42;;;;;;;10.15;5.40;;;;;;;12.53;100.00;97446.63;5063474;28;20103;-89
2021/05/23 00:55:08;;;;;;;11.60;5.22;;;;;;;12.52;100.00;97444.06;5063745;28;20080;-88
2021/05/23 00:57:34;;;;;;;11.07;5.20;;;;;;;12.53;100.00;97441.25;5064130;28;20417;-89
2021/05/23 00:59:59;;;;;;;9.65;5.43;;;;;;;12.62;100.00;97439.72;5064432;28;20072;-89
2021/05/23 01:02:47;;;;;;;8.70;5.53;;;;;;;12.55;100.00;97454.56;5062904;28;20111;-88
2021/05/23 01:05:16;;;;;;;7.40;5.57;;;;;;;12.47;100.00;97455.97;5081171;28;20055;-88
2021/05/23 01:07:43;;;;;;;8.48;6.10;;;;;;;12.45;100.00;97457.03;5063033;28;20453;-89
2021/05/23 01:10:14;;;;;;;8.63;6.28;;;;;;;12.44;100.00;97466.91;5080100;28;20028;-89
2021/05/23 01:12:54;;;;;;;17.17;6.38;;;;;;;12.45;100.00;97467.78;5063254;28;20020;-86
2021/05/23 01:15:39;;;;;;;14.40;6.40;;;;;;;12.44;100.00;97453.50;5080035;28;20016;-86
2021/05/23 01:18:11;;;;;;;9.32;5.90;;;;;;;12.39;100.00;97462.84;5063164;28;20028;-87
2021/05/23 01:20:46;;;;;;;11.27;5.65;;;;;;;12.37;100.00;97459.38;5063543;28;20055;-87
2021/05/23 01:23:22;;;;;;;13.88;6.38;;;;;;;12.34;100.00;97457.78;5080013;28;20028;-86
2021/05/23 01:25:51;;;;;;;17.05;7.32;;;;;;;12.33;100.00;97453.41;5063448;28;20499;-87
2021/05/23 01:28:17;;;;;;;14.07;7.00;;;;;;;12.25;100.00;97445.03;5063315;28;20181;-87
2021/05/23 01:30:45;;;;;;;14.02;7.15;;;;;;;12.17;100.00;97438.50;5063283;28;20081;-86
2021/05/23 01:33:13;;;;;;;14.25;7.30;;;;;;;12.09;100.00;97436.34;5063484;28;20106;-87
2021/05/23 01:35:40;;;;;;;9.18;6.47;;;;;;;12.04;100.00;97446.53;5062172;28;20072;-87
2021/05/23 01:38:17;;;;;;;12.50;6.00;;;;;;;12.06;100.00;97470.56;5063152;28;20138;-88
2021/05/23 01:40:43;;;;;;;8.48;5.38;;;;;;;11.91;100.00;97445.66;5063808;28;20099;-88
2021/05/23 01:43:09;;;;;;;16.40;6.30;;;;;;;11.81;100.00;97458.00;5079073;28;20115;-87
2021/05/23 01:45:36;;;;;;;11.70;6.13;;;;;;;11.84;100.00;97458.63;5095030;28;20024;-88
2021/05/23 01:48:05;;;;;;;16.45;6.30;;;;;;;11.77;100.00;97459.16;5079236;28;20020;-88
2021/05/23 01:50:30;;;;;;;14.38;6.22;;;;;;;11.79;100.00;97455.41;5096489;28;20020;-88
2021/05/23 01:52:58;;;;;;;15.15;7.05;;;;;;;11.71;100.00;97448.84;5061725;28;20043;-88
2021/05/23 01:55:25;;;;;;;14.45;6.45;;;;;;;11.75;100.00;97461.91;5095582;28;20055;-87
2021/05/23 01:57:51;;;;;;;14.73;7.22;;;;;;;11.73;100.00;97445.09;5061571;28;20038;-87
2021/05/23 02:00:20;;;;;;;13.35;6.50;;;;;;;11.73;100.00;97453.13;5060223;28;20114;-87
2021/05/23 02:02:46;;;;;;;11.65;6.03;;;;;;;11.69;100.00;97446.22;5061857;28;20028;-87
2021/05/23 02:05:12;;;;;;;11.32;6.53;;;;;;;11.66;100.00;97442.94;5061829;28;20100;-87
2021/05/23 02:07:38;;;;;;;17.30;5.68;;;;;;;11.75;100.00;97455.72;5061673;28;20024;-88
2021/05/23 02:10:09;;;;;;;10.10;5.85;;;;;;;11.69;100.00;97435.50;5079090;28;20074;-87
2021/05/23 02:12:35;;;;;;;12.25;6.68;;;;;;;11.76;100.00;97454.75;5063023;28;20039;-88
2021/05/23 02:15:02;;;;;;;11.27;5.88;;;;;;;11.71;100.00;97446.19;5063099;28;20024;-87
2021/05/23 02:17:29;;;;;;;9.15;5.40;;;;;;;11.69;100.00;97443.56;5079138;28;20495;-87
2021/05/23 02:19:54;;;;;;;8.63;5.20;;;;;;;11.71;100.00;97438.13;5061953;28;20024;-87
2021/05/23 02:22:20;;;;;;;11.48;5.50;;;;;;;11.72;100.00;97446.06;5061371;28;20033;-87
2021/05/23 02:24:46;;;;;;;8.70;5.22;;;;;;;11.74;100.00;97451.31;5061573;28;20031;-87
2021/05/23 02:27:12;;;;;;;12.70;4.93;;;;;;;11.74;100.00;97444.16;5080254;28;20024;-87
2021/05/23 02:29:37;;;;;;;17.55;5.47;;;;;;;11.68;100.00;97454.38;5063647;28;20028;-87
2021/05/23 02:32:07;;;;;;;10.00;5.85;;;;;;;11.65;100.00;97452.78;5061702;28;20031;-88
2021/05/23 02:34:34;;;;;;;13.43;6.13;;;;;;;11.66;100.00;97467.03;5062457;28;20042;-87
2021/05/23 02:37:00;;;;;;;14.75;6.45;;;;;;;11.68;100.00;97465.09;5061614;28;20196;-87
2021/05/23 02:39:26;;;;;;;11.10;6.00;;;;;;;11.64;100.00;97460.91;5095065;28;20507;-87
2021/05/23 02:41:51;;;;;;;14.52;5.95;;;;;;;11.67;100.00;97458.03;5063778;28;20020;-87
2021/05/23 02:44:17;;;;;;;14.60;6.32;;;;;;;11.61;100.00;97455.75;5065367;28;20008;-87
2021/05/23 02:46:43;;;;;;;33.05;7.20;;;;;;;11.60;100.00;97470.97;5082062;28;20039;-87
2021/05/23 02:49:13;;;;;;;11.35;5.90;;;;;;;11.63;100.00;97464.56;5065180;28;20024;-87
2021/05/23 02:51:40;;;;;;;8.23;5.78;;;;;;;11.66;100.00;97473.22;5081322;28;20066;-86
2021/05/23 02:54:06;;;;;;;15.45;5.30;;;;;;;11.58;100.00;97464.88;5082038;28;20039;-87
2021/05/23 02:56:31;;;;;;;8.70;5.55;;;;;;;11.62;100.00;97460.16;5081989;28;20146;-87
2021/05/23 02:58:57;;;;;;;16.95;5.88;;;;;;;11.63;100.00;97461.88;5082101;28;20056;-87
2021/05/23 03:01:23;;;;;;;7.97;5.70;;;;;;;11.66;100.00;97461.69;5065175;28;20028;-87
2021/05/23 03:03:48;;;;;;;6.75;5.65;;;;;;;11.68;100.00;97465.97;5065634;28;20028;-87
2021/05/23 03:06:14;;;;;;;14.45;5.32;;;;;;;11.77;100.00;97475.22;5064493;28;20024;-87
2021/05/23 03:08:39;;;;;;;11.30;6.32;;;;;;;11.79;100.00;97465.25;5064989;28;20054;-87
2021/05/23 03:11:05;;;;;;;10.20;5.88;;;;;;;11.80;100.00;97461.63;5081973;28;20027;-86
2021/05/23 03:13:31;;;;;;;9.68;5.88;;;;;;;11.85;100.00;97467.53;5062657;28;20023;-85
2021/05/23 03:15:56;;;;;;;14.85;5.95;;;;;;;11.84;100.00;97465.81;5062944;28;20008;-85
2021/05/23 03:18:22;;;;;;;9.07;5.57;;;;;;;11.89;100.00;97464.53;5063084;28;20059;-86
2021/05/23 03:20:47;;;;;;;8.52;5.70;;;;;;;12.02;100.00;97474.41;5095749;28;20023;-87
2021/05/23 03:23:13;;;;;;;12.75;6.70;;;;;;;12.07;100.00;97474.94;5062280;28;20099;-87
2021/05/23 03:25:39;;;;;;;12.65;7.35;;;;;;;12.06;100.00;97481.28;5063238;28;20530;-87
2021/05/23 03:28:05;;;;;;;19.75;6.38;;;;;;;12.18;100.00;97486.63;5096895;28;20024;-87
2021/05/23 03:30:34;;;;;;;16.27;6.60;;;;;;;12.28;100.00;97494.91;5063165;28;20012;-87
2021/05/23 03:33:03;;;;;;;14.18;6.22;;;;;;;12.37;100.00;97495.13;5096115;28;20082;-87
2021/05/23 03:35:29;;;;;;;24.00;6.78;;;;;;;12.29;100.00;97484.09;5078088;28;20131;-88
2021/05/23 03:37:55;;;;;;;16.85;6.85;;;;;;;12.36;100.00;97485.38;5062125;28;20059;-86
2021/05/23 03:40:21;;;;;;;14.70;7.53;;;;;;;12.45;100.00;97502.66;5079454;28;20050;-86
2021/05/23 03:42:48;;;;;;;27.95;8.73;;;;;;;12.62;100.00;97520.22;5096407;28;20028;-86
2021/05/23 03:45:19;;;;;;;21.63;8.75;;;;;;;12.57;100.00;97504.47;5078326;28;20027;-86
2021/05/23 03:47:45;;;;;;;21.27;9.07;;;;;;;12.60;100.00;97514.13;5078318;28;20027;-86
2021/05/23 03:50:13;;;;;;;18.63;8.90;;;;;;;12.69;100.00;97510.78;5063032;28;20032;-87
2021/05/23 03:52:39;;;;;;;19.80;8.05;;;;;;;12.79;100.00;97519.91;5092064;28;20016;-72
2021/05/23 03:55:06;;;;;;;14.43;8.07;;;;;;;12.78;100.00;97505.63;5074596;28;20055;-72
2021/05/23 03:57:32;;;;;;;11.88;7.80;;;;;;;12.83;100.00;97508.81;5073933;28;20041;-72
2021/05/23 03:59:57;;;;;;;15.45;7.35;;;;;;;12.81;99.84;97504.53;5074719;28;20103;-72
2021/05/23 04:02:23;;;;;;;13.13;6.60;;;;;;;12.84;100.00;97505.19;5074393;28;20513;-72
2021/05/23 04:04:53;;;;;;;15.13;6.70;;;;;;;12.93;100.00;97520.63;5074654;28;20490;-71
2021/05/23 04:07:19;;;;;;;19.73;8.35;;;;;;;12.98;100.00;97525.69;5074823;28;20020;-72
2021/05/23 04:09:49;;;;;;;22.80;8.80;;;;;;;13.06;100.00;97528.66;5074952;28;20116;-72
2021/05/23 04:12:19;;;;;;;16.05;7.22;;;;;;;13.09;98.29;97528.47;5074556;28;20031;-72
2021/05/23 04:14:45;;;;;;;12.23;6.47;;;;;;;13.20;97.23;97536.59;5075312;28;20020;-71
2021/05/23 04:17:10;;;;;;;10.52;6.60;;;;;;;13.21;96.10;97526.72;5073376;28;20095;-75
2021/05/23 04:19:36;;;;;;;20.35;6.28;;;;;;;13.25;94.79;97533.59;5092623;28;20406;-75
2021/05/23 04:22:03;;;;;;;12.93;6.65;;;;;;;13.39;94.58;97531.63;5056163;28;20032;-75
2021/05/23 04:24:39;;;;;;;12.48;6.03;;;;;;;13.52;94.67;97540.50;5056621;28;20027;-72
2021/05/23 04:27:06;;;;;;;11.40;5.82;;;;;;;13.58;93.86;97541.88;5058161;28;20028;-80
2021/05/23 04:29:32;;;;;;;14.88;6.80;;;;;;;13.80;92.82;97542.00;5059394;28;20019;-73
2021/05/23 04:31:59;;;;;;;14.60;6.03;;;;;;;14.07;91.20;97539.91;5074222;28;20023;-73
2021/05/23 04:34:25;;;;;;;9.35;5.22;;;;;;;15.94;82.06;97544.63;5074831;28;20019;-73
2021/05/23 04:36:51;;;;;;;11.23;5.32;;;;;;;17.04;74.45;97558.50;5074374;28;20528;-73
2021/05/23 04:39:16;;;;;;;14.70;5.60;;;;;;;16.83;74.38;97540.66;5074353;28;20036;-73
2021/05/23 04:41:42;;;;;;;17.40;5.30;;;;;;;16.47;76.47;97553.59;5092288;28;20115;-73
2021/05/23 04:44:07;;;;;;;11.27;5.93;;;;;;;16.28;77.93;97548.03;5073878;28;20020;-72
2021/05/23 04:46:34;;;;;;;16.20;6.43;;;;;;;16.19;78.69;97555.06;5073752;28;20034;-72
2021/05/23 04:49:00;;;;;;;7.03;4.85;;;;;;;16.11;79.57;97545.91;5073859;28;20030;-73
2021/05/23 04:51:32;;;;;;;23.85;6.80;;;;;;;16.21;80.18;97549.56;5073010;28;20024;-73
2021/05/23 04:53:58;;;;;;;19.02;6.10;;;;;;;16.57;78.37;97551.84;5069982;28;20059;-72
2021/05/23 04:56:24;;;;;;;10.98;5.75;;;;;;;18.09;72.36;97558.00;5072357;28;20139;-73
2021/05/23 04:58:49;;;;;;;20.05;6.07;;;;;;;20.67;62.04;97562.59;5057408;28;20031;-73
2021/05/23 05:01:15;;;;;;;16.17;5.28;;;;;;;23.07;54.03;97560.16;5073982;28;20467;-73
2021/05/23 05:03:40;;;;;;;6.43;4.30;;;;;;;23.76;49.93;97559.47;5073815;28;20032;-73
2021/05/23 05:06:06;;;;;;;11.10;4.55;;;;;;;24.38;47.42;97559.53;5089593;28;20044;-73
2021/05/23 05:08:31;;;;;;;13.55;4.43;;;;;;;24.35;46.78;97571.69;5091584;28;20059;-73
2021/05/23 05:10:57;;;;;;;19.92;4.75;;;;;;;24.58;45.13;97578.00;5088545;28;20035;-74
2021/05/23 05:13:23;;;;;;;13.43;3.92;;;;;;;23.90;45.53;97566.97;5072928;28;20024;-75
2021/05/23 05:15:48;;;;;;;7.70;3.75;;;;;;;24.79;43.77;97574.63;5073376;28;20026;-74
2021/05/23 05:18:14;;;;;;;10.32;4.00;;;;;;;26.00;40.77;97558.84;5073065;28;20442;-74
2021/05/23 05:20:39;;;;;;;7.70;3.80;;;;;;;26.65;39.09;97569.78;5073401;28;20028;-74
2021/05/23 05:23:06;;;;;;;8.20;3.60;;;;;;;28.56;36.30;97577.53;5073544;28;20028;-74
2021/05/23 05:25:32;;;;;;;6.70;3.90;;;;;;;29.81;33.42;97575.75;5072938;28;20028;-75
2021/05/23 05:27:57;;;;;;;12.15;4.10;;;;;;;30.28;32.32;97574.56;5090826;28;20095;-74
2021/05/23 05:30:24;;;;;;;5.97;2.90;;;;;;;31.02;31.41;97572.09;5073376;28;20042;-74
2021/05/23 05:32:49;;;;;;;8.25;3.50;;;;;;;30.76;30.82;97569.50;5072924;28;20367;-73
2021/05/23 05:35:15;;;;;;;13.75;3.30;;;;;;;31.65;30.22;97579.28;5091193;28;20024;-74
2021/05/23 05:37:41;;;;;;;5.43;2.90;;;;;;;33.08;28.44;97579.72;5072605;28;20031;-74
2021/05/23 05:40:07;;;;;;;13.15;3.40;;;;;;;33.91;27.32;97576.81;5072943;28;20028;-73
2021/05/23 05:42:32;;;;;;;9.35;3.53;;;;;;;34.98;25.90;97578.91;5055905;28;20024;-74
2021/05/23 05:44:58;;;;;;;10.80;3.80;;;;;;;35.87;24.89;97586.38;5057289;28;20384;-73
2021/05/23 05:47:26;;;;;;;8.55;3.28;;;;;;;36.80;24.22;97588.28;5073189;28;20060;-73
2021/05/23 05:49:51;;;;;;;13.98;3.05;;;;;;;37.07;23.27;97596.69;5091654;28;20028;-73
2021/05/23 05:52:17;;;;;;;10.05;3.78;;;;;;;37.25;23.44;97601.09;5056722;28;20027;-73
2021/05/23 05:54:42;;;;;;;23.02;4.25;;;;;;;37.07;23.81;97599.47;5072001;28;20020;-73
2021/05/23 05:57:08;;;;;;;18.63;3.97;;;;;;;37.03;23.82;97605.88;5057933;28;20024;-73
2021/05/23 05:59:33;;;;;;;18.20;4.80;;;;;;;37.63;23.76;97605.66;5091056;28;20494;-74
2021/05/23 06:01:59;;;;;;;14.25;5.35;;;;;;;37.07;24.33;97596.69;5072950;28;20445;-75
2021/05/23 06:04:25;;;;;;;13.68;4.97;;;;;;;36.64;25.30;97608.69;5056150;28;20368;-74
2021/05/23 06:06:50;;;;;;;16.90;6.40;;;;;;;37.11;24.87;97614.59;5072714;28;20063;-73
2021/05/23 06:09:16;;;;;;;8.45;5.03;;;;;;;37.14;24.41;97616.88;5055971;28;20040;-75
2021/05/23 06:11:41;;;;;;;14.77;4.75;;;;;;;37.30;24.94;97620.66;5090355;28;20012;-76
2021/05/23 06:14:07;;;;;;;9.98;5.03;;;;;;;37.99;23.66;97616.06;5055885;28;20024;-76
2021/05/23 06:16:32;;;;;;;9.95;4.43;;;;;;;36.69;24.70;97614.38;5056247;28;20024;-76
2021/05/23 06:18:58;;;;;;;11.75;4.75;;;;;;;37.57;24.48;97629.91;5059587;28;20031;-75
2021/05/23 06:21:23;;;;;;;14.10;4.80;;;;;;;37.91;24.13;97625.78;5076380;28;20120;-76
2021/05/23 06:23:49;;;;;;;8.00;3.88;;;;;;;37.05;24.53;97628.75;5075562;28;20023;-76
2021/05/23 06:26:15;;;;;;;8.18;3.80;;;;;;;37.90;22.96;97632.44;5076393;28;20263;-75
2021/05/23 06:28:43;;;;;;;6.57;3.20;;;;;;;37.87;22.96;97629.34;5062486;28;20088;-88
2021/05/23 06:31:09;;;;;;;12.68;4.30;;;;;;;38.72;23.08;97631.91;5063511;28;20081;-87
2021/05/23 06:33:36;;;;;;;7.45;3.70;;;;;;;38.48;22.93;97631.50;5059726;28;20028;-87
2021/05/23 06:36:02;;;;;;;7.05;3.40;;;;;;;39.03;21.47;97616.13;5062590;28;20530;-87
2021/05/23 06:38:27;;;;;;;6.78;3.97;;;;;;;38.84;22.17;97621.34;5097138;28;20028;-86
2021/05/23 06:40:53;;;;;;;11.10;4.75;;;;;;;38.16;22.86;97607.50;5064918;28;20399;-87
2021/05/23 06:43:20;;;;;;;10.57;4.80;;;;;;;39.06;22.71;97615.56;5097082;28;20032;-87
2021/05/23 06:45:46;;;;;;;20.90;5.95;;;;;;;40.47;21.34;97623.25;5097695;28;20024;-87
2021/05/23 06:48:11;;;;;;;9.38;4.95;;;;;;;38.97;22.67;97620.00;5063712;28;20040;-87
2021/05/23 06:50:38;;;;;;;9.00;4.03;;;;;;;38.44;23.58;97630.38;5080668;28;20034;-88
2021/05/23 06:53:04;;;;;;;8.55;3.80;;;;;;;37.95;24.09;97654.88;5064356;28;20040;-88
2021/05/23 06:55:30;;;;;;;9.50;4.03;;;;;;;39.22;22.95;97648.09;5064020;28;20048;-87
2021/05/23 06:57:56;;;;;;;7.53;4.90;;;;;;;39.40;22.65;97632.75;5063070;28;20035;-87
2021/05/23 07:00:23;;;;;;;6.10;3.55;;;;;;;39.28;22.46;97629.38;5064565;28;20034;-87
2021/05/23 07:02:49;;;;;;;6.35;4.07;;;;;;;39.13;23.12;97646.09;5078410;28;20040;-88
2021/05/23 07:05:14;;;;;;;4.18;3.72;;;;;;;39.58;22.13;97617.38;5062750;28;20035;-87
2021/05/23 07:07:40;;;;;;;5.30;3.97;;;;;;;40.19;20.38;97609.84;5060801;28;20032;-87
2021/05/23 07:10:06;;;;;;;9.27;4.05;;;;;;;39.97;21.75;97627.78;5066460;28;20038;-88
2021/05/23 07:12:32;;;;;;;5.93;3.90;;;;;;;39.77;21.73;97610.97;5059228;28;20510;-86
2021/05/23 07:21:05;;;;;;;5.68;3.22;;;;;;;40.24;22.26;97609.84;5074604;28;20109;-86
2021/05/23 07:23:31;;;;;;;11.40;4.43;;;;;;;40.35;22.23;97583.44;5044969;28;20493;-88
2021/05/23 07:25:57;;;;;;;6.53;2.88;;;;;;;40.25;22.38;97583.47;5070155;28;20498;-89
2021/05/23 07:28:23;;;;;;;3.83;2.67;;;;;;;38.82;21.89;97581.63;5036528;28;20102;-88
2021/05/23 07:30:49;;;;;;;9.38;4.22;;;;;;;39.28;22.57;97577.00;5057387;28;20388;-88
2021/05/23 07:33:15;;;;;;;10.57;3.08;;;;;;;39.91;21.33;97597.22;5041047;28;20094;-88
2021/05/23 07:35:41;;;;;;;8.63;3.75;;;;;;;40.35;20.90;97583.44;5041091;28;20566;-88
2021/05/23 07:38:07;;;;;;;6.30;2.90;;;;;;;39.78;20.56;97589.41;5040647;28;20028;-88
2021/05/23 07:40:33;;;;;;;9.85;3.33;;;;;;;38.74;20.61;97562.53;5041438;28;20054;-88
2021/05/23 07:42:59;;;;;;;3.33;2.88;;;;;;;37.51;21.48;97575.13;5041774;28;20041;-88
2021/05/23 07:45:24;;;;;;;36.65;8.48;;;;;;;37.51;21.71;97571.47;5040152;28;20032;-88
2021/05/23 07:47:50;;;;;;;5.53;3.92;;;;;;;37.01;22.29;97560.66;5051589;28;20032;-88
2021/05/23 07:50:15;;;;;;;9.00;3.30;;;;;;;36.03;24.70;97567.09;5057206;28;20549;-89
2021/05/23 07:52:41;;;;;;;13.52;3.65;;;;;;;36.07;25.44;97573.88;5036526;28;20087;-88
2021/05/23 07:55:07;;;;;;;8.25;2.72;;;;;;;37.15;23.63;97570.28;5048951;28;20051;-79
2021/05/23 07:57:33;;;;;;;3.13;2.30;;;;;;;38.82;21.23;97559.25;5058620;28;20142;-79
2021/05/23 07:59:59;;;;;;;5.90;2.60;;;;;;;40.02;21.33;97560.47;5058919;28;20495;-79
2021/05/23 08:02:25;;;;;;;10.82;4.45;;;;;;;41.17;19.58;97567.97;5058808;28;20502;-80
2021/05/23 08:04:50;;;;;;;6.45;3.38;;;;;;;42.47;19.29;97573.66;5092115;28;20515;-79
2021/05/23 08:07:16;;;;;;;10.80;3.05;;;;;;;43.12;18.70;97572.00;5058622;28;20104;-80
2021/05/23 08:09:41;;;;;;;4.20;3.17;;;;;;;42.08;18.61;97568.97;5059000;28;20024;-80
2021/05/23 08:12:07;;;;;;;6.47;4.43;;;;;;;41.58;20.29;97559.00;5058718;28;20028;-80
2021/05/23 08:14:33;;;;;;;10.30;4.85;;;;;;;41.29;19.39;97560.84;5058909;28;20046;-80
2021/05/23 08:16:59;;;;;;;7.07;3.17;;;;;;;41.64;19.46;97556.97;5058623;28;20058;-79
2021/05/23 08:19:24;;;;;;;8.38;3.13;;;;;;;42.85;18.04;97552.94;5058793;28;20036;-79
2021/05/23 08:21:50;;;;;;;15.07;3.80;;;;;;;43.37;17.99;97556.75;5059305;28;20467;-80
2021/05/23 08:24:16;;;;;;;27.60;3.35;;;;;;;43.33;17.52;97539.56;5058580;28;20035;-80
2021/05/23 08:26:41;;;;;;;5.75;2.95;;;;;;;43.57;17.28;97545.13;5075331;28;20036;-80
2021/05/23 08:29:07;;;;;;;21.52;4.82;;;;;;;44.28;17.18;97558.00;5059146;28;20415;-79
2021/05/23 08:31:33;;;;;;;9.48;2.97;;;;;;;44.26;16.85;97560.31;5058303;28;20398;-79
2021/05/23 08:33:59;;;;;;;7.97;3.00;;;;;;;43.85;16.80;97558.22;5058490;28;20024;-79
2021/05/23 08:36:25;;;;;;;24.15;5.13;;;;;;;43.06;17.46;97542.25;5075202;28;20024;-79
2021/05/23 08:38:50;;;;;;;11.45;3.35;;;;;;;42.87;17.77;97546.97;5058065;28;20119;-79
2021/05/23 08:41:17;;;;;;;7.72;3.30;;;;;;;42.22;17.55;97537.34;5058438;28;20028;-80
2021/05/23 08:43:43;;;;;;;6.35;2.50;;;;;;;41.85;17.54;97532.34;5058536;28;20464;-80
2021/05/23 08:46:09;;;;;;;8.52;3.10;;;;;;;42.18;18.47;97551.16;5058726;28;20089;-79
2021/05/23 08:48:37;;;;;;;3.38;2.83;;;;;;;42.00;17.48;97535.00;5092443;28;20110;-79
2021/05/23 08:51:03;;;;;;;5.53;2.85;;;;;;;41.89;19.34;97534.28;5058385;28;20032;-78
2021/05/23 08:53:29;;;;;;;7.15;2.35;;;;;;;40.75;19.01;97531.97;5057512;28;20054;-78
2021/05/23 08:55:55;;;;;;;3.05;2.42;;;;;;;40.10;20.56;97528.25;5091376;28;20044;-79
2021/05/23 08:58:23;;;;;;;8.77;2.55;;;;;;;38.62;20.98;97533.09;5058620;28;20044;-79
2021/05/23 09:00:48;;;;;;;3.58;2.53;;;;;;;39.95;21.61;97545.94;5091590;28;20024;-80
2021/05/23 09:03:18;;;;;;;8.38;3.03;;;;;;;41.30;20.18;97550.47;5074718;28;20388;-79
2021/05/23 09:05:48;;;;;;;40.65;3.72;;;;;;;41.39;19.52;97551.56;5058378;28;20107;-79
2021/05/23 09:08:16;;;;;;;6.53;2.45;;;;;;;41.33;20.05;97561.13;5058303;28;20027;-80
2021/05/23 09:10:44;;;;;;;2.70;2.08;;;;;;;41.48;18.77;97547.00;5057519;28;20032;-79
2021/05/23 09:13:10;;;;;;;3.42;2.28;;;;;;;41.70;19.90;97547.38;5057908;28;20071;-80
2021/05/23 09:15:35;;;;;;;8.48;3.03;;;;;;;42.53;18.67;97547.97;5057937;28;20479;-80
2021/05/23 09:18:04;;;;;;;4.57;2.38;;;;;;;42.06;17.70;97542.25;5057466;28;20039;-80
2021/05/23 09:20:30;;;;;;;2.70;2.00;;;;;;;42.44;18.85;97546.94;5073812;28;20035;-80
2021/05/23 09:22:56;;;;;;;2.63;2.30;;;;;;;42.57;17.58;97540.63;5057670;28;20111;-80
2021/05/23 09:25:48;;;;;;;6.15;2.40;;;;;;;40.84;18.97;97525.47;5057690;28;20035;-80
2021/05/23 09:28:14;;;;;;;6.72;2.70;;;;;;;41.69;19.55;97553.31;5053773;28;20529;-80
2021/05/23 09:30:45;;;;;;;1.83;1.52;;;;;;;41.48;17.02;97518.88;5074339;28;20058;-81
2021/05/23 09:33:19;;;;;;;8.15;2.30;;;;;;;42.49;17.09;97524.34;5091299;28;20462;-80
2021/05/23 09:35:45;;;;;;;3.97;2.28;;;;;;;42.41;14.79;97524.19;5073772;28;20457;-80
2021/05/23 09:38:14;;;;;;;4.35;1.70;;;;;;;42.28;15.91;97517.31;5057224;28;20036;-80
2021/05/23 09:40:41;;;;;;;2.13;1.70;;;;;;;42.21;14.92;97501.94;5073779;28;20032;-79
2021/05/23 09:43:08;;;;;;;5.78;1.90;;;;;;;43.16;15.85;97502.66;5074131;28;20020;-80
2021/05/23 09:45:52;;;;;;;2.20;1.67;;;;;;;41.54;15.34;97498.88;5090610;28;20034;-80
2021/05/23 09:48:22;;;;;;;5.40;1.85;;;;;;;42.27;15.38;97503.53;5057205;28;20510;-78
2021/05/23 09:50:49;;;;;;;4.90;1.80;;;;;;;42.93;16.11;97500.72;5073402;28;20028;-80
2021/05/23 09:53:21;;;;;;;5.97;1.83;;;;;;;42.68;15.16;97499.09;5057006;28;20066;-79
2021/05/23 09:55:54;;;;;;;4.97;2.00;;;;;;;43.69;15.25;97500.38;5056987;28;20495;-79
2021/05/23 09:58:37;;;;;;;9.40;1.85;;;;;;;44.49;16.90;97498.00;5074509;28;20505;-80
2021/05/23 10:01:08;;;;;;;3.83;2.13;;;;;;;44.75;12.57;97487.88;5066478;28;20515;-79
2021/05/23 10:03:36;;;;;;;8.00;1.73;;;;;;;43.26;15.19;97487.53;5057454;28;20020;-80
2021/05/23 10:06:02;;;;;;;6.55;1.77;;;;;;;41.61;16.74;97479.72;5057398;28;20031;-79
2021/05/23 10:08:28;;;;;;;5.00;1.77;;;;;;;41.39;16.83;97478.50;5073514;28;20387;-79
2021/05/23 10:10:55;;;;;;;2.20;1.60;;;;;;;41.98;15.49;97467.00;5056405;28;20380;-79
2021/05/23 10:13:22;;;;;;;2.53;1.67;;;;;;;41.92;16.03;97457.78;5090112;28;20464;-78
2021/05/23 10:15:48;;;;;;;3.13;1.83;;;;;;;42.57;16.50;97475.00;5058730;28;20085;-81
2021/05/23 10:18:14;;;;;;;2.90;1.83;;;;;;;42.71;14.74;97461.03;5056286;28;20081;-80
2021/05/23 10:20:42;;;;;;;5.85;1.88;;;;;;;42.48;16.29;97440.25;5073560;28;20024;-81
2021/05/23 10:23:13;;;;;;;2.38;1.80;;;;;;;43.04;17.09;97457.22;5057396;28;20028;-80
2021/05/23 10:25:43;;;;;;;4.63;1.85;;;;;;;43.32;14.85;97456.16;5056940;28;20059;-80
2021/05/23 10:28:09;;;;;;;4.47;2.15;;;;;;;44.19;16.59;97461.97;5056685;28;20036;-80
2021/05/23 10:30:48;;;;;;;4.38;1.80;;;;;;;45.31;14.30;97455.53;5074295;28;20038;-80
2021/05/23 10:33:14;;;;;;;2.80;2.33;;;;;;;46.33;15.61;97470.63;5056846;28;20097;-80
2021/05/23 10:35:44;;;;;;;3.72;2.45;;;;;;;45.89;13.84;97451.75;5056378;28;20032;-80
2021/05/23 10:38:14;;;;;;;3.80;1.90;;;;;;;46.40;13.45;97456.81;5056655;28;20119;-80
2021/05/23 10:41:18;;;;;;;5.72;2.40;;;;;;;45.45;14.47;97449.78;5073527;28;20031;-80
2021/05/23 10:43:47;;;;;;;4.95;3.28;;;;;;;44.57;15.51;97451.31;5001053;28;20025;-80
2021/05/23 10:46:14;;;;;;;4.03;3.05;;;;;;;44.73;15.53;97453.44;5063735;28;20035;-79
2021/05/23 10:48:58;;;;;;;3.03;2.28;;;;;;;45.32;13.95;97442.25;5073275;28;20055;-80
2021/05/23 10:51:24;;;;;;;3.13;2.20;;;;;;;45.29;13.84;97432.34;5089621;28;20497;-80
2021/05/23 10:53:50;;;;;;;3.20;2.03;;;;;;;45.25;15.37;97437.00;5090439;28;20024;-79
2021/05/23 10:56:30;;;;;;;14.82;3.10;;;;;;;46.05;14.86;97431.25;5053624;28;20579;-79
2021/05/23 10:59:00;;;;;;;8.05;2.60;;;;;;;45.29;14.79;97432.34;5055243;28;20498;-77
2021/05/23 11:01:39;;;;;;;3.80;2.30;;;;;;;43.24;15.94;97419.41;5056796;28;20062;-79
2021/05/23 11:04:23;;;;;;;3.58;2.00;;;;;;;43.87;15.81;97426.16;5076354;28;20038;-79
2021/05/23 11:06:49;;;;;;;2.67;2.22;;;;;;;44.44;14.85;97421.06;5076321;28;20051;-81
2021/05/23 11:09:20;;;;;;;6.20;2.00;;;;;;;45.16;16.64;97427.63;5059505;28;20435;-78
2021/05/23 11:11:46;;;;;;;7.43;4.38;;;;;;;45.69;13.47;97405.91;5059557;28;20407;-79
2021/05/23 11:14:19;;;;;;;11.43;4.97;;;;;;;45.39;14.16;97417.16;5059492;28;20020;-79
2021/05/23 11:16:53;;;;;;;7.80;3.38;;;;;;;45.09;14.65;97398.97;5076645;28;20047;-78
2021/05/23 11:19:19;;;;;;;7.30;2.45;;;;;;;44.33;15.89;97405.53;5056770;28;20415;-78
2021/05/23 11:21:47;;;;;;;3.45;1.92;;;;;;;45.26;14.89;97399.09;5056608;28;20035;-79
2021/05/23 11:24:13;;;;;;;9.30;4.70;;;;;;;43.78;15.22;97387.75;5059158;28;20123;-79
2021/05/23 11:26:39;;;;;;;3.47;2.47;;;;;;;43.73;16.57;97397.09;5059425;28;20165;-78
2021/05/23 11:29:05;;;;;;;5.78;2.47;;;;;;;42.58;17.50;97393.09;5076321;28;20446;-79
2021/05/23 11:31:34;;;;;;;6.45;2.00;;;;;;;44.16;15.64;97392.88;5059119;28;20046;-80
2021/05/23 11:34:02;;;;;;;2.58;2.25;;;;;;;43.66;15.79;97376.94;5059386;28;20024;-79